Address 0xf6436829cf96ea0f8bc49d300c536fcc4f84c4ed

Txn Hash Method
Block
From
To
Value [Txn Fee]
0xb8ef801c6c45b12917776721ef81faadaaf57a1b222b5e47b6f967b6a6b2a28fTransfer174967332023-01-31 7:55:285 mins ago0xf6436829cf96ea0f8bc49d300c536fcc4f84c4edOUT0xfd0c05d640011087189514995d5c0c984f082183121.899 CELO0.000525
0xd7dc3c4e9e0f6914a6098f9edff2ccc2ca47105518910b161f485452d6717d86Transfer174967272023-01-31 7:54:586 mins ago0xf6436829cf96ea0f8bc49d300c536fcc4f84c4edOUT0xa977a47b51eb8d62b6e56678389502025eed202c792.69743237 CELO0.000525
0x66d983a4da65540d78c39701c4288b5df42c582facfa9b26c83db1d261020992Transfer174966222023-01-31 7:46:1315 mins ago0xf6436829cf96ea0f8bc49d300c536fcc4f84c4edOUT0xa925f228d49cd2441cbfe4b61eda149985a7fb5310 CELO0.000525
0xc434c3bdd450b43ba2e60c006a879ee081451a34e318aaf2e16198ef275dcf50Transfer174966132023-01-31 7:45:2815 mins ago0xf6436829cf96ea0f8bc49d300c536fcc4f84c4edOUT0xfd0c05d640011087189514995d5c0c984f082183115.599 CELO0.000525
0x35d2d354e85f52f75d576a92452777c50bfcdbe60d92658713529278b67a6992Transfer174962482023-01-31 7:15:0346 mins ago0x125f660239707c9de3462d3fa633f2723ad0b884 IN 0xf6436829cf96ea0f8bc49d300c536fcc4f84c4ed19,933.672475 CELO0.000525
0xc307d36b595d4abffb89542cfb9a902e3b902f1f12ede91cff296089cb87eacbTransfer174962382023-01-31 7:14:1347 mins ago0xf6436829cf96ea0f8bc49d300c536fcc4f84c4edOUT0x301b5fc2fa97569b5336b8369ec92a3f74c630be40.999 CELO0.000525
0x4e2c7d27c08b055da351b1bb061ab90611704264b45f36de9caad82d609f5b85Transfer174953652023-01-31 6:01:281 hr 59 mins ago0xf6436829cf96ea0f8bc49d300c536fcc4f84c4edOUT0x4c9c42dcc8062528d87266be769bc21d9a26bdcc799.209 CELO0.000525
0xa3e4fa0b9f1b15d43d33087514056ae05fc4b7a2c3cb660d367cedb972e1db2dTransfer174953202023-01-31 5:57:432 hrs 3 mins ago0xf6436829cf96ea0f8bc49d300c536fcc4f84c4edOUT0x772c58b582a23ab3db3dc70cd6f383e12f9fe27c19.06659462 CELO0.000525
0x29f5a9a7daee55dedc56c586e3a88b5552c18a7a9483561007f31dceced7e373Transfer174953172023-01-31 5:57:282 hrs 3 mins ago0xf6436829cf96ea0f8bc49d300c536fcc4f84c4edOUT0x4c9c42dcc8062528d87266be769bc21d9a26bdcc919.029 CELO0.000525
0xd7c2fcbbda381a1c7f98e21c0d879b1c12a404d5417548d8bd295dff9398d640Transfer174950232023-01-31 5:32:582 hrs 28 mins ago0xf6436829cf96ea0f8bc49d300c536fcc4f84c4edOUT0x6b637c94c3c5ce4b79e6655b898a168a749c190c1.98014015 CELO0.000525
0xc89446bc141cab765cd6fe79ecfe4436a18d5d7db6ba57e590157d1043b331eeTransfer174949012023-01-31 5:22:482 hrs 38 mins ago0x1c28d05ae9015f322495b310178a22d1f35231e0 IN 0xf6436829cf96ea0f8bc49d300c536fcc4f84c4ed142.011879398183709 CELO0.000525
0xee7860d908ac013fd71da41b577d43f3c7fd4e4b07fa5a1dd32445f94a9e7e17Transfer174948702023-01-31 5:20:132 hrs 41 mins ago0xf6436829cf96ea0f8bc49d300c536fcc4f84c4edOUT0x7fb63cc0fe905ec1d3c11af30ef6c72b3bcb00691,690.999 CELO0.000525
0xa4a824e07cfbd2c7f29fd6f484603b3492f3ff701d32b8ba547d7338ee2d3bb0Transfer174943152023-01-31 4:33:583 hrs 27 mins ago0xf6436829cf96ea0f8bc49d300c536fcc4f84c4edOUT0x7fb63cc0fe905ec1d3c11af30ef6c72b3bcb0069930.799 CELO0.000525
0xc238ed1091a8dee5a8dd97aefe102a9cba75a5e8075df16364496003b5abdfbcTransfer174940392023-01-31 4:10:583 hrs 50 mins ago0xf6436829cf96ea0f8bc49d300c536fcc4f84c4edOUT0xcbfae761f5e124002154d0ea0dc126ba1f5d4ed49.999 CELO0.000525
0x8eecbe500f6d88b2eec763974852396ca92ee8306a78a19746e251bb9a15bb0eTransfer174936712023-01-31 3:40:184 hrs 20 mins ago0xf6436829cf96ea0f8bc49d300c536fcc4f84c4edOUT0x511a27763885a4e79f5c6b0306149dda9fe6f4e4310.41823976 CELO0.000525
0x61e75b1e94197e6658de133b46930b3dc8e4c318456f1f788d1362488d229b04Transfer174934962023-01-31 3:25:434 hrs 35 mins ago0xf6436829cf96ea0f8bc49d300c536fcc4f84c4edOUT0x4336f427468d8e03c372fa5af33ec303597c037612 CELO0.000525
0x15040bcea5bd6b90bb964170093205d5c0b0e364f938a9c7d16a4857373b0e26Transfer174932862023-01-31 3:08:134 hrs 53 mins ago0xf6436829cf96ea0f8bc49d300c536fcc4f84c4edOUT0x4d44a1c9615a3afd28d93756ba5de892fdb960e514.01436481 CELO0.000525
0x175027ff0d5a66a5cf31698edb1fba3c5f2c1d5b12edf16d567b59f8180c134eTransfer174932532023-01-31 3:05:284 hrs 55 mins ago0xf6436829cf96ea0f8bc49d300c536fcc4f84c4edOUT0x4336f427468d8e03c372fa5af33ec303597c03766 CELO0.000525
0xe4173a4a1783c9add99af13660027cd93eae2752aefeecf86d0c7a2a02c75306Transfer174931882023-01-31 3:00:035 hrs 1 min ago0x125f660239707c9de3462d3fa633f2723ad0b884 IN 0xf6436829cf96ea0f8bc49d300c536fcc4f84c4ed19,920.199475 CELO0.000525
0x846c3059c6eb4b77edc9f89d7474c5164134f8b68698b68fabddf03f1e0be5d4Transfer174929862023-01-31 2:43:135 hrs 18 mins ago0xf6436829cf96ea0f8bc49d300c536fcc4f84c4edOUT0x3c6b8bdb0c96f3071e16e20a42d5ccb3e4cf6d17559.999 CELO0.000525
0x18b2630e91109cdefa6648ae117aa2770b13aabee04a24620756bca9d000fb37Transfer174929562023-01-31 2:40:435 hrs 20 mins ago0xf6436829cf96ea0f8bc49d300c536fcc4f84c4edOUT0x3c6b8bdb0c96f3071e16e20a42d5ccb3e4cf6d171.47739968 CELO0.000525
0x9d80a792d4c7885daf4efe82016b5afb12313bd6bcf307e2da0b24e3af9e7406Transfer174928952023-01-31 2:35:385 hrs 25 mins ago0xfbafffaf952c7a4e774f5528edcb569be14801f3 IN 0xf6436829cf96ea0f8bc49d300c536fcc4f84c4ed15.348602 CELO0.000525
0xff28be8d670aeac2e8247ed170c8b7837a677277790cc9ed4581824339af6f0cTransfer174928952023-01-31 2:35:385 hrs 25 mins ago0x8c682ab4478b1ba65a4e70832d5add733dc9323c IN 0xf6436829cf96ea0f8bc49d300c536fcc4f84c4ed207.184891598658386 CELO0.000525
0x386e9beb26a27cc790f7e0c4ab7d44da464563cfe85f47cd928c7a26d34a41a3Transfer174926202023-01-31 2:12:435 hrs 48 mins ago0x125f660239707c9de3462d3fa633f2723ad0b884 IN 0xf6436829cf96ea0f8bc49d300c536fcc4f84c4ed15,244.982475 CELO0.000525
0xc83c76d325a3415fd8d6b9049025e3dc70698f08daa810e09bda197cb002a3e7Transfer174924162023-01-31 1:55:436 hrs 5 mins ago0xf6436829cf96ea0f8bc49d300c536fcc4f84c4edOUT0xee83f1c65c86680580a5c86f29b338ac2c38ef5c22.199 CELO0.000525
[ Download CSV Export 
Parent Txn Hash Block From To Value
Loading

Contract Name:
0

Compiler Version
0

Optimization Enabled:
0

Other Settings:
-NA-
Block Transaction Gas Used Reward
Age Block Fee Address BC Fee Address Voting Power Jailed Incoming
Block Uncle Number Difficulty Gas Used Reward
Loading
Make sure to use the "Vote Down" button for any spammy posts, and the "Vote Up" for interesting conversations.